Time;durP1;ratioP1;P1;durP2;ratioP2;P2;SDS_P1;SDS_P2;PMS_P1;PMS_P2;Temp;Humidity;BMP_temperature;BMP_pressure;BME280_temperature;BME280_humidity;BME280_pressure;Samples;Min_cycle;Max_cycle;Signal;HPM_P1;HPM_P2
2020/12/12 00:00:14;;;;;;;0.20;0.20;;;10.90;99.90;;;;;;5027835;28;20029;-91
2020/12/12 00:02:40;;;;;;;0.30;0.30;;;10.90;99.90;;;;;;5048933;28;20029;-91
2020/12/12 00:05:06;;;;;;;0.10;0.10;;;10.90;99.90;;;;;;5020514;28;20037;-91
2020/12/12 00:07:32;;;;;;;0.45;0.45;;;11.00;99.90;;;;;;5033124;28;20025;-91
2020/12/12 00:09:58;;;;;;;0.20;0.20;;;10.90;99.90;;;;;;5024219;28;20036;-91
2020/12/12 00:12:24;;;;;;;0.25;0.25;;;10.90;99.90;;;;;;5028817;28;20052;-90
2020/12/12 00:14:50;;;;;;;0.10;0.10;;;10.90;99.90;;;;;;5036140;28;20071;-91
2020/12/12 00:17:19;;;;;;;0.52;0.52;;;11.00;99.90;;;;;;5045701;28;20044;-91
2020/12/12 00:19:48;;;;;;;0.10;0.10;;;10.90;99.90;;;;;;5037289;28;20479;-91
2020/12/12 00:22:14;;;;;;;0.10;0.10;;;10.90;99.90;;;;;;5033762;28;20669;-91
2020/12/12 00:24:40;;;;;;;0.93;0.85;;;10.90;99.90;;;;;;5050560;28;20028;-91
2020/12/12 00:27:06;;;;;;;3.30;1.95;;;11.00;99.90;;;;;;5040923;28;20544;-91
2020/12/12 00:29:32;;;;;;;0.65;0.65;;;10.90;99.90;;;;;;5061771;28;20452;-91
2020/12/12 00:31:59;;;;;;;0.88;0.88;;;10.80;99.90;;;;;;5030981;28;20021;-91
2020/12/12 00:34:25;;;;;;;0.20;0.20;;;10.80;99.90;;;;;;5049011;28;20112;-91
2020/12/12 00:36:51;;;;;;;1.70;0.80;;;10.80;99.90;;;;;;5030100;28;20025;-91
2020/12/12 00:39:19;;;;;;;0.80;0.80;;;10.80;99.90;;;;;;5031351;28;20060;-91
2020/12/12 00:41:45;;;;;;;1.65;0.98;;;10.80;99.90;;;;;;5022928;28;20056;-91
2020/12/12 00:44:11;;;;;;;0.53;0.53;;;10.70;99.90;;;;;;5030344;28;20036;-91
2020/12/12 00:46:38;;;;;;;0.15;0.15;;;10.70;99.90;;;;;;5025222;28;20033;-91
2020/12/12 00:49:05;;;;;;;0.20;0.20;;;10.80;99.90;;;;;;5025672;28;20057;-90
2020/12/12 00:51:30;;;;;;;;;;;10.70;99.90;;;;;;5031077;28;20032;-90
2020/12/12 00:53:56;;;;;;;0.10;0.10;;;10.80;99.90;;;;;;5066385;28;19908;-89
2020/12/12 00:56:22;;;;;;;0.10;0.10;;;10.80;99.90;;;;;;5041322;28;20791;-89
2020/12/12 00:58:48;;;;;;;0.55;0.55;;;10.80;99.90;;;;;;5052448;28;20039;-90
2020/12/12 01:01:15;;;;;;;1.90;1.73;;;10.80;99.90;;;;;;5036187;28;20439;-90
2020/12/12 01:03:41;;;;;;;;;;;10.80;99.90;;;;;;5016129;28;20036;-91
2020/12/12 01:06:11;;;;;;;0.10;0.10;;;10.80;99.90;;;;;;5042596;28;19909;-90
2020/12/12 01:08:38;;;;;;;0.10;0.10;;;10.90;99.90;;;;;;5019146;28;20280;-89
2020/12/12 01:11:04;;;;;;;;;;;10.90;99.90;;;;;;5029413;28;20036;-90
2020/12/12 01:13:30;;;;;;;0.40;0.40;;;10.90;99.90;;;;;;5024839;28;19908;-90
2020/12/12 01:15:56;;;;;;;0.10;0.10;;;10.90;99.90;;;;;;5030802;28;20041;-89
2020/12/12 01:18:22;;;;;;;0.20;0.20;;;10.90;99.90;;;;;;5030633;28;20048;-90
2020/12/12 01:20:48;;;;;;;1.23;0.70;;;10.90;99.90;;;;;;5030869;28;20220;-90
2020/12/12 01:23:13;;;;;;;5.43;2.35;;;10.90;99.90;;;;;;5018585;28;20039;-90
2020/12/12 01:25:40;;;;;;;0.40;0.40;;;10.90;99.90;;;;;;5030492;28;20112;-90
2020/12/12 01:28:06;;;;;;;0.30;0.30;;;10.90;99.90;;;;;;5026178;28;20039;-90
2020/12/12 01:30:35;;;;;;;0.43;0.30;;;10.90;99.90;;;;;;5015598;28;20036;-90
2020/12/12 01:33:01;;;;;;;0.30;0.30;;;10.80;99.90;;;;;;5026418;28;20029;-90
2020/12/12 01:35:26;;;;;;;5.78;1.70;;;10.90;99.90;;;;;;5026257;28;20072;-89
2020/12/12 01:37:52;;;;;;;0.75;0.75;;;10.90;99.90;;;;;;5026260;28;20025;-90
2020/12/12 01:40:18;;;;;;;0.60;0.55;;;10.90;99.90;;;;;;5025448;28;20078;-90
2020/12/12 01:42:44;;;;;;;0.85;0.60;;;10.90;99.90;;;;;;5020980;28;20082;-89
2020/12/12 01:45:10;;;;;;;0.25;0.25;;;10.90;99.90;;;;;;5030790;28;20048;-90
2020/12/12 01:47:36;;;;;;;0.10;0.10;;;10.90;99.90;;;;;;5020849;28;20498;-90
2020/12/12 01:50:04;;;;;;;0.10;0.10;;;10.80;99.90;;;;;;5026207;28;20028;-91
2020/12/12 01:52:31;;;;;;;0.38;0.38;;;10.80;99.90;;;;;;5022866;28;20440;-91
2020/12/12 01:54:57;;;;;;;0.10;0.10;;;10.80;99.90;;;;;;5059224;28;20021;-91
2020/12/12 01:57:23;;;;;;;0.10;0.10;;;10.70;99.90;;;;;;5025800;28;20035;-90
2020/12/12 01:59:51;;;;;;;0.10;0.10;;;10.60;99.90;;;;;;5033023;28;20112;-91
2020/12/12 02:02:18;;;;;;;0.10;0.10;;;10.60;99.90;;;;;;5030991;28;20049;-91
2020/12/12 02:04:49;;;;;;;4.93;0.52;;;10.50;99.90;;;;;;5022392;28;20041;-91
2020/12/12 02:07:17;;;;;;;0.10;0.10;;;10.50;99.90;;;;;;5045529;28;20039;-91
2020/12/12 02:09:47;;;;;;;1.65;1.30;;;10.60;99.90;;;;;;5050602;28;20528;-91
2020/12/12 02:12:13;;;;;;;2.63;0.68;;;10.70;99.90;;;;;;5035903;28;20460;-91
2020/12/12 02:14:39;;;;;;;0.25;0.25;;;10.70;99.90;;;;;;5034310;28;20033;-91
2020/12/12 02:17:07;;;;;;;4.57;1.67;;;10.70;99.90;;;;;;5035030;28;20037;-90
2020/12/12 02:19:33;;;;;;;0.17;0.17;;;10.70;99.90;;;;;;5023065;28;20032;-90
2020/12/12 02:22:08;;;;;;;0.60;0.60;;;10.60;99.90;;;;;;5052802;28;20036;-91
2020/12/12 02:24:34;;;;;;;0.63;0.57;;;10.60;99.90;;;;;;5031849;28;20187;-91
2020/12/12 02:27:05;;;;;;;0.10;0.10;;;10.60;99.90;;;;;;5035527;28;20025;-91
2020/12/12 02:29:52;;;;;;;0.38;0.38;;;10.60;99.90;;;;;;5033861;28;20036;-91
2020/12/12 02:32:18;;;;;;;1.88;1.45;;;10.60;99.90;;;;;;5036761;28;20108;-91
2020/12/12 02:34:44;;;;;;;0.10;0.10;;;10.60;99.90;;;;;;5053110;28;20137;-90
2020/12/12 02:37:10;;;;;;;0.00;0.00;;;10.50;99.90;;;;;;5026911;28;20029;-90
2020/12/12 02:39:36;;;;;;;0.22;0.22;;;10.50;99.90;;;;;;5024093;28;20086;-91
2020/12/12 02:42:02;;;;;;;0.17;0.17;;;10.40;99.90;;;;;;5033509;28;20021;-90
2020/12/12 02:44:27;;;;;;;0.10;0.10;;;10.40;99.90;;;;;;5026543;28;20057;-91
2020/12/12 02:46:53;;;;;;;0.20;0.20;;;10.30;99.90;;;;;;5033600;28;20119;-91
2020/12/12 02:49:19;;;;;;;0.20;0.20;;;10.20;99.90;;;;;;5023138;28;20048;-91
2020/12/12 02:51:45;;;;;;;0.10;0.10;;;10.20;99.90;;;;;;5032652;28;20060;-91
2020/12/12 02:54:11;;;;;;;0.40;0.40;;;10.20;99.90;;;;;;5026221;28;20025;-90
2020/12/12 02:56:37;;;;;;;0.60;0.60;;;10.10;99.90;;;;;;5039330;28;20483;-90
2020/12/12 02:59:03;;;;;;;0.10;0.10;;;10.10;99.90;;;;;;5033821;28;20040;-90
2020/12/12 03:01:29;;;;;;;0.10;0.10;;;10.00;99.90;;;;;;5033463;28;20033;-90
2020/12/12 03:03:54;;;;;;;0.50;0.20;;;10.00;99.90;;;;;;5034087;28;20056;-90
2020/12/12 03:06:20;;;;;;;0.10;0.10;;;10.00;99.90;;;;;;5029708;28;20021;-90
2020/12/12 03:08:46;;;;;;;0.30;0.30;;;10.00;99.90;;;;;;5033724;28;20546;-91
2020/12/12 03:11:12;;;;;;;0.10;0.10;;;10.00;99.90;;;;;;5026788;28;20025;-91
2020/12/12 03:13:38;;;;;;;0.10;0.10;;;10.10;99.90;;;;;;5038472;28;20032;-91
2020/12/12 03:16:03;;;;;;;0.10;0.10;;;10.10;99.90;;;;;;5027641;28;20096;-90
2020/12/12 03:18:29;;;;;;;0.10;0.10;;;10.20;99.90;;;;;;5013939;28;20405;-91
2020/12/12 03:20:55;;;;;;;0.10;0.10;;;10.20;99.90;;;;;;5027229;28;20444;-91
2020/12/12 03:23:21;;;;;;;0.10;0.10;;;10.20;99.90;;;;;;5013574;28;20553;-91
2020/12/12 03:25:46;;;;;;;0.32;0.32;;;10.30;99.90;;;;;;5013435;28;20037;-90
2020/12/12 03:28:12;;;;;;;0.10;0.10;;;10.30;99.90;;;;;;5012377;28;20075;-90
2020/12/12 03:30:38;;;;;;;0.10;0.10;;;10.30;99.90;;;;;;5013211;28;20075;-90
2020/12/12 03:33:04;;;;;;;1.10;0.95;;;10.20;99.90;;;;;;5032417;28;20021;-90
2020/12/12 03:35:32;;;;;;;0.10;0.10;;;10.20;99.90;;;;;;5039743;28;20049;-90
2020/12/12 03:38:01;;;;;;;0.10;0.10;;;10.30;99.90;;;;;;5018672;28;20132;-90
2020/12/12 03:40:27;;;;;;;0.10;0.10;;;10.30;99.90;;;;;;5050106;28;20030;-89
2020/12/12 03:42:53;;;;;;;0.10;0.10;;;10.30;99.90;;;;;;5020820;28;20108;-90
2020/12/12 03:45:21;;;;;;;0.40;0.40;;;10.30;99.90;;;;;;5035071;28;20039;-89
2020/12/12 03:47:48;;;;;;;0.30;0.30;;;10.30;99.90;;;;;;5027682;28;20868;-89
2020/12/12 03:50:14;;;;;;;0.10;0.10;;;10.30;99.90;;;;;;5022710;28;20175;-90
2020/12/12 03:52:40;;;;;;;0.10;0.10;;;10.30;99.90;;;;;;5007531;28;20034;-90
2020/12/12 03:55:06;;;;;;;0.10;0.10;;;10.30;99.90;;;;;;5011546;28;20356;-90
2020/12/12 03:57:32;;;;;;;0.10;0.10;;;10.30;99.90;;;;;;5012461;28;20025;-90
2020/12/12 03:59:58;;;;;;;0.90;0.88;;;10.30;99.90;;;;;;5016626;28;20025;-90
2020/12/12 04:02:23;;;;;;;0.10;0.10;;;10.30;99.90;;;;;;5017774;28;20033;-90
2020/12/12 04:04:49;;;;;;;0.10;0.10;;;10.30;99.90;;;;;;5024667;28;20036;-90
2020/12/12 04:07:15;;;;;;;0.10;0.10;;;10.30;99.90;;;;;;5041811;28;20025;-89
2020/12/12 04:09:41;;;;;;;1.85;0.90;;;10.30;99.90;;;;;;5011762;28;20033;-90
2020/12/12 04:12:06;;;;;;;0.20;0.20;;;10.40;99.90;;;;;;5013087;28;20030;-90
2020/12/12 04:14:32;;;;;;;0.20;0.20;;;10.40;99.90;;;;;;5022042;28;20025;-89
2020/12/12 04:16:58;;;;;;;0.20;0.20;;;10.40;99.90;;;;;;5045368;28;20041;-89
2020/12/12 04:19:24;;;;;;;0.10;0.10;;;10.40;99.90;;;;;;5068917;28;20032;-89
2020/12/12 04:21:50;;;;;;;0.10;0.10;;;10.40;99.90;;;;;;5066870;28;20024;-89
2020/12/12 04:24:16;;;;;;;0.10;0.10;;;10.40;99.90;;;;;;5031492;28;20033;-90
2020/12/12 04:26:42;;;;;;;0.10;0.10;;;10.40;99.90;;;;;;5049090;28;20112;-90
2020/12/12 04:29:08;;;;;;;0.80;0.80;;;10.40;99.90;;;;;;5039489;28;20026;-89
2020/12/12 04:31:35;;;;;;;0.10;0.10;;;10.40;99.90;;;;;;5023377;28;20128;-89
2020/12/12 04:34:00;;;;;;;0.10;0.10;;;10.40;99.90;;;;;;5020367;28;20108;-89
2020/12/12 04:36:26;;;;;;;0.10;0.10;;;10.40;99.90;;;;;;5040231;28;20058;-89
2020/12/12 04:38:52;;;;;;;0.10;0.10;;;10.50;99.90;;;;;;5045319;28;20482;-88
2020/12/12 04:41:18;;;;;;;1.23;0.82;;;10.40;99.90;;;;;;5026060;28;20483;-88
2020/12/12 04:43:45;;;;;;;0.22;0.22;;;10.40;99.90;;;;;;5034162;28;20387;-87
2020/12/12 04:46:12;;;;;;;0.50;0.50;;;10.40;99.90;;;;;;5043791;28;20066;-89
2020/12/12 04:48:39;;;;;;;0.10;0.10;;;10.40;99.90;;;;;;5032368;28;20036;-90
2020/12/12 04:51:05;;;;;;;0.35;0.35;;;10.40;99.90;;;;;;5034711;28;20024;-89
2020/12/12 04:53:32;;;;;;;0.73;0.73;;;10.40;99.90;;;;;;5042135;28;20134;-89
2020/12/12 04:55:58;;;;;;;0.10;0.10;;;10.40;99.90;;;;;;5036916;28;20832;-88
2020/12/12 04:58:26;;;;;;;0.32;0.32;;;10.40;99.90;;;;;;5019867;28;20087;-90
2020/12/12 05:00:53;;;;;;;2.65;1.38;;;10.40;99.90;;;;;;5034713;28;20092;-89
2020/12/12 05:03:24;;;;;;;0.10;0.10;;;10.40;99.90;;;;;;5023769;28;20033;-88
2020/12/12 05:05:50;;;;;;;0.20;0.20;;;10.40;99.90;;;;;;5040472;28;20039;-89
2020/12/12 05:08:16;;;;;;;0.10;0.10;;;10.40;99.90;;;;;;5032250;28;20032;-87
2020/12/12 05:10:44;;;;;;;1.48;1.38;;;10.30;99.90;;;;;;5048101;28;20029;-86
2020/12/12 05:13:20;;;;;;;5.50;1.42;;;10.30;99.90;;;;;;5049135;28;20092;-87
2020/12/12 05:15:47;;;;;;;1.13;1.10;;;10.30;99.90;;;;;;5047081;28;20051;-87
2020/12/12 05:18:12;;;;;;;;;;;10.30;99.90;;;;;;5044443;28;20036;-87
2020/12/12 05:20:39;;;;;;;0.10;0.10;;;10.30;99.90;;;;;;5051957;28;19912;-87
2020/12/12 05:23:20;;;;;;;0.10;0.10;;;10.30;99.90;;;;;;5031004;28;20458;-87
2020/12/12 05:25:47;;;;;;;0.10;0.10;;;10.30;99.90;;;;;;5017821;28;20298;-88
2020/12/12 05:28:15;;;;;;;3.00;1.27;;;10.30;99.90;;;;;;5047639;28;20076;-88
2020/12/12 05:30:42;;;;;;;0.82;0.55;;;10.20;99.90;;;;;;5029799;28;20025;-88
2020/12/12 05:33:11;;;;;;;0.30;0.30;;;10.30;99.90;;;;;;5031183;28;20079;-88
2020/12/12 05:35:37;;;;;;;0.90;0.90;;;10.30;99.90;;;;;;5031134;28;20108;-87
2020/12/12 05:38:09;;;;;;;2.47;2.23;;;10.30;99.90;;;;;;5030849;28;20104;-88
2020/12/12 05:40:38;;;;;;;0.82;0.82;;;10.30;99.90;;;;;;5033218;28;20028;-86
2020/12/12 05:43:06;;;;;;;0.57;0.57;;;10.30;99.90;;;;;;5028831;28;20501;-88
2020/12/12 05:45:33;;;;;;;1.10;0.55;;;10.30;99.90;;;;;;5032463;28;20557;-88
2020/12/12 05:47:58;;;;;;;0.22;0.22;;;10.30;99.90;;;;;;5031832;28;20510;-88
2020/12/12 05:50:25;;;;;;;0.10;0.10;;;10.30;99.90;;;;;;5044678;28;20036;-89
2020/12/12 05:52:53;;;;;;;0.30;0.30;;;10.30;99.90;;;;;;5036691;28;20434;-88
2020/12/12 05:55:30;;;;;;;0.10;0.10;;;10.30;99.90;;;;;;5032432;28;20033;-88
2020/12/12 05:57:56;;;;;;;1.08;1.00;;;10.30;99.90;;;;;;5030062;28;20025;-87
2020/12/12 06:00:27;;;;;;;0.20;0.20;;;10.20;99.90;;;;;;5020446;28;20036;-87
2020/12/12 06:02:54;;;;;;;0.95;0.95;;;10.20;99.90;;;;;;5050547;28;20040;-87
2020/12/12 06:05:30;;;;;;;0.38;0.38;;;10.20;99.90;;;;;;5026219;28;20025;-87
2020/12/12 06:07:58;;;;;;;0.10;0.10;;;10.20;99.90;;;;;;5029932;28;20048;-87
2020/12/12 06:10:36;;;;;;;0.10;0.10;;;10.20;99.90;;;;;;5028557;28;20032;-87
2020/12/12 06:13:06;;;;;;;0.35;0.35;;;10.10;99.90;;;;;;5042303;28;20024;-87
2020/12/12 06:15:36;;;;;;;0.20;0.20;;;10.10;99.90;;;;;;5057008;28;20013;-87
2020/12/12 06:18:20;;;;;;;1.10;1.02;;;10.20;99.90;;;;;;5044195;28;20083;-87
2020/12/12 06:20:49;;;;;;;0.10;0.10;;;10.10;99.90;;;;;;5039131;28;20025;-92
2020/12/12 06:23:16;;;;;;;2.50;0.60;;;10.10;99.90;;;;;;5034471;28;20092;-94
2020/12/12 06:25:41;;;;;;;2.00;0.80;;;10.20;99.90;;;;;;5034389;28;20014;-93
2020/12/12 06:28:15;;;;;;;0.30;0.30;;;10.10;99.90;;;;;;5025240;28;20033;-93
2020/12/12 06:30:43;;;;;;;1.17;0.32;;;10.10;99.90;;;;;;5014245;28;20036;-93
2020/12/12 06:33:09;;;;;;;0.20;0.20;;;10.10;99.90;;;;;;5014449;28;20133;-90
2020/12/12 06:35:39;;;;;;;1.25;0.68;;;10.10;99.90;;;;;;5028936;28;20696;-91
2020/12/12 06:38:28;;;;;;;2.38;1.85;;;10.10;99.90;;;;;;5041619;28;20029;-93
2020/12/12 06:41:00;;;;;;;0.10;0.10;;;10.10;99.90;;;;;;5036244;28;20124;-93
2020/12/12 06:43:36;;;;;;;0.10;0.10;;;10.10;99.90;;;;;;5023037;28;20017;-87
2020/12/12 06:46:06;;;;;;;0.40;0.40;;;10.00;99.90;;;;;;5056259;28;20028;-85
2020/12/12 06:48:34;;;;;;;0.85;0.85;;;10.00;99.90;;;;;;5058031;28;20538;-87
2020/12/12 06:51:02;;;;;;;0.32;0.32;;;10.00;99.90;;;;;;5049586;28;20028;-86
2020/12/12 06:53:29;;;;;;;0.10;0.10;;;10.00;99.90;;;;;;5046233;28;20052;-84
2020/12/12 06:56:15;;;;;;;2.42;1.25;;;10.00;99.90;;;;;;5033361;28;20017;-86
2020/12/12 06:58:44;;;;;;;2.45;0.73;;;10.10;99.90;;;;;;5048876;28;20112;-88
2020/12/12 07:01:29;;;;;;;0.25;0.25;;;10.00;99.90;;;;;;5032929;28;20448;-87
2020/12/12 07:04:06;;;;;;;0.75;0.75;;;10.00;99.90;;;;;;5031664;28;20052;-87
2020/12/12 07:06:34;;;;;;;0.20;0.20;;;10.00;99.90;;;;;;5038470;28;20096;-88
2020/12/12 07:09:02;;;;;;;0.65;0.65;;;10.00;99.90;;;;;;5039848;28;20111;-88
2020/12/12 07:11:31;;;;;;;0.20;0.20;;;10.00;99.90;;;;;;5041940;28;20028;-87
2020/12/12 07:13:57;;;;;;;1.27;1.20;;;9.90;99.90;;;;;;5044165;28;20032;-88
2020/12/12 07:16:24;;;;;;;0.20;0.20;;;10.00;99.90;;;;;;5040034;28;20459;-87
2020/12/12 07:18:51;;;;;;;7.55;1.20;;;10.00;99.90;;;;;;5025470;28;20100;-87
2020/12/12 07:21:18;;;;;;;2.70;1.55;;;9.90;99.90;;;;;;5043527;28;20028;-86
2020/12/12 07:23:48;;;;;;;3.25;1.50;;;9.90;99.90;;;;;;5033891;28;20477;-86
2020/12/12 07:26:14;;;;;;;0.40;0.40;;;9.90;99.90;;;;;;5045866;28;20025;-86
2020/12/12 07:28:40;;;;;;;0.40;0.38;;;9.70;99.90;;;;;;5031250;28;20029;-86
2020/12/12 07:31:06;;;;;;;0.10;0.10;;;9.80;99.90;;;;;;5028251;28;20025;-85
2020/12/12 07:33:32;;;;;;;1.15;1.10;;;9.70;99.90;;;;;;5037130;28;20063;-87
2020/12/12 07:35:59;;;;;;;1.05;1.00;;;9.70;99.90;;;;;;5032971;28;20029;-87
2020/12/12 07:38:25;;;;;;;0.10;0.10;;;9.60;99.90;;;;;;5063074;28;20568;-86
2020/12/12 07:40:51;;;;;;;6.53;0.70;;;9.60;99.90;;;;;;5069672;28;20056;-86
2020/12/12 07:43:17;;;;;;;0.10;0.10;;;9.60;99.90;;;;;;5041306;28;20111;-87
2020/12/12 07:46:00;;;;;;;1.08;1.02;;;9.60;99.90;;;;;;5035750;28;20346;-92
2020/12/12 07:48:27;;;;;;;0.10;0.10;;;9.60;99.90;;;;;;5029935;28;20544;-92
2020/12/12 07:50:53;;;;;;;0.57;0.57;;;9.50;99.90;;;;;;5053962;28;20104;-92
2020/12/12 07:53:19;;;;;;;0.20;0.20;;;9.50;99.90;;;;;;5035814;28;20106;-92
2020/12/12 07:55:58;;;;;;;0.10;0.10;;;9.50;99.90;;;;;;5033193;28;20025;-92
2020/12/12 07:58:30;;;;;;;0.20;0.20;;;9.50;99.90;;;;;;5029903;28;20510;-92
2020/12/12 08:01:01;;;;;;;1.40;1.30;;;9.50;99.90;;;;;;5056597;28;20059;-92
2020/12/12 08:03:27;;;;;;;0.20;0.20;;;9.40;99.90;;;;;;5056347;28;20029;-92
2020/12/12 08:06:25;;;;;;;0.25;0.25;;;9.30;99.90;;;;;;5028383;28;20025;-92
2020/12/12 08:08:56;;;;;;;0.10;0.10;;;9.40;99.90;;;;;;5010491;28;20044;-87
2020/12/12 08:11:22;;;;;;;1.55;1.27;;;9.40;99.90;;;;;;5049626;28;20506;-85
2020/12/12 08:13:48;;;;;;;0.40;0.40;;;9.30;99.90;;;;;;5017519;28;20087;-86
2020/12/12 08:16:29;;;;;;;0.35;0.35;;;9.30;99.90;;;;;;5021886;28;20535;-86
2020/12/12 08:19:05;;;;;;;0.77;0.77;;;9.20;99.90;;;;;;5029437;28;20036;-85
2020/12/12 08:21:30;;;;;;;0.10;0.10;;;9.20;99.90;;;;;;5049279;28;20021;-86
2020/12/12 08:23:57;;;;;;;0.10;0.10;;;9.10;99.90;;;;;;5031382;28;20043;-86
2020/12/12 08:26:24;;;;;;;0.10;0.10;;;8.90;99.90;;;;;;5030739;28;20776;-86
2020/12/12 08:28:49;;;;;;;;;;;8.80;99.90;;;;;;5022265;28;20566;-86
2020/12/12 08:31:21;;;;;;;0.20;0.20;;;8.70;99.90;;;;;;5042693;28;20007;-88
2020/12/12 08:33:55;;;;;;;0.10;0.10;;;8.60;99.90;;;;;;5020940;28;20024;-88
2020/12/12 08:36:29;;;;;;;0.10;0.10;;;8.50;99.90;;;;;;5024709;28;20041;-87
2020/12/12 08:39:12;;;;;;;11.23;1.20;;;8.40;99.90;;;;;;5025156;28;20111;-86
2020/12/12 08:41:40;;;;;;;0.10;0.10;;;8.30;99.90;;;;;;5036559;28;20044;-86
2020/12/12 08:44:07;;;;;;;0.10;0.10;;;8.30;99.90;;;;;;5036617;28;20100;-86
2020/12/12 08:46:34;;;;;;;2.70;1.55;;;8.20;99.90;;;;;;5023091;28;20033;-86
2020/12/12 08:49:00;;;;;;;1.02;0.63;;;8.00;99.90;;;;;;5027299;28;20621;-86
2020/12/12 08:51:30;;;;;;;0.50;0.50;;;7.90;99.90;;;;;;5014253;28;20033;-86
2020/12/12 08:53:57;;;;;;;0.10;0.10;;;7.80;99.90;;;;;;5033783;28;20026;-86
2020/12/12 08:56:26;;;;;;;0.32;0.32;;;7.90;99.90;;;;;;5043757;28;20682;-87
2020/12/12 08:58:54;;;;;;;0.10;0.10;;;7.80;99.90;;;;;;5043432;28;20033;-86
2020/12/12 09:01:35;;;;;;;0.60;0.60;;;7.80;99.90;;;;;;5042883;28;20371;-86
2020/12/12 09:04:08;;;;;;;0.25;0.25;;;7.60;99.90;;;;;;5032341;28;20116;-87
2020/12/12 09:06:50;;;;;;;0.10;0.10;;;7.60;99.90;;;;;;5039864;28;20025;-87
2020/12/12 09:09:27;;;;;;;0.10;0.10;;;7.60;99.90;;;;;;5020681;28;20521;-86
2020/12/12 09:11:56;;;;;;;3.30;1.95;;;7.60;99.90;;;;;;5013316;28;20026;-86
2020/12/12 09:14:23;;;;;;;0.10;0.10;;;7.50;99.90;;;;;;5020356;28;20022;-86
2020/12/12 09:17:00;;;;;;;0.20;0.20;;;7.60;99.90;;;;;;5041478;28;20045;-86
2020/12/12 09:19:26;;;;;;;0.90;0.90;;;7.80;99.90;;;;;;5047843;28;20037;-86
2020/12/12 09:21:53;;;;;;;0.10;0.10;;;8.00;99.90;;;;;;5048693;28;20028;-86
2020/12/12 09:24:22;;;;;;;0.30;0.30;;;7.70;99.90;;;;;;5023218;28;20040;-86
2020/12/12 09:26:49;;;;;;;0.10;0.10;;;7.80;99.90;;;;;;5029897;28;20028;-86
2020/12/12 09:29:15;;;;;;;0.10;0.10;;;8.00;1.00;;;;;;5037324;28;20031;-87
2020/12/12 09:31:41;;;;;;;3.10;0.52;;;8.80;99.90;;;;;;5053880;28;20025;-87
2020/12/12 09:34:07;;;;;;;0.43;0.43;;;8.70;99.90;;;;;;5057001;28;20028;-87
2020/12/12 09:36:33;;;;;;;0.28;0.28;;;9.10;99.90;;;;;;5031804;28;20510;-87
2020/12/12 09:38:59;;;;;;;0.65;0.65;;;8.80;99.90;;;;;;5046592;28;20026;-87
2020/12/12 09:41:24;;;;;;;0.10;0.10;;;10.10;99.90;;;;;;5048066;28;20448;-88
2020/12/12 09:43:50;;;;;;;0.10;0.10;;;9.30;99.90;;;;;;5036127;28;20036;-87
2020/12/12 09:46:18;;;;;;;0.32;0.32;;;8.80;99.90;;;;;;5037453;28;20490;-88
2020/12/12 09:48:46;;;;;;;0.17;0.17;;;8.80;99.90;;;;;;5063115;28;20027;-87
2020/12/12 09:51:13;;;;;;;0.40;0.40;;;9.60;99.90;;;;;;5022372;28;20021;-87
2020/12/12 09:53:40;;;;;;;1.40;1.30;;;9.50;99.90;;;;;;5051948;28;20033;-88
2020/12/12 09:56:06;;;;;;;0.10;0.10;;;8.80;99.90;;;;;;5061342;28;20017;-88
2020/12/12 09:58:32;;;;;;;0.10;0.10;;;10.20;99.90;;;;;;5045438;28;20021;-87
2020/12/12 10:00:58;;;;;;;0.30;0.30;;;10.30;99.90;;;;;;5044206;28;20740;-87
2020/12/12 10:03:24;;;;;;;0.50;0.50;;;9.50;99.90;;;;;;5024511;28;20056;-87
2020/12/12 10:05:50;;;;;;;0.45;0.45;;;12.30;99.90;;;;;;5029370;28;20494;-87
2020/12/12 10:08:16;;;;;;;0.20;0.20;;;9.50;99.90;;;;;;5041516;28;20071;-86
2020/12/12 10:10:42;;;;;;;0.77;0.53;;;9.10;99.90;;;;;;5045357;28;20118;-86
2020/12/12 10:13:08;;;;;;;0.47;0.43;;;9.00;99.90;;;;;;5041269;28;20033;-86
2020/12/12 10:15:35;;;;;;;0.30;0.30;;;8.90;99.90;;;;;;5040972;28;20325;-86
2020/12/12 10:18:01;;;;;;;;;;;8.80;99.90;;;;;;5047226;28;20060;-86
2020/12/12 10:20:28;;;;;;;0.10;0.10;;;8.80;99.90;;;;;;5065584;28;19952;-86
2020/12/12 10:22:54;;;;;;;0.15;0.15;;;8.40;99.90;;;;;;5036271;28;20028;-86
2020/12/12 10:25:21;;;;;;;1.55;1.45;;;8.50;99.90;;;;;;5052280;28;20437;-86
2020/12/12 10:27:47;;;;;;;2.83;1.10;;;8.60;99.90;;;;;;5042049;28;20566;-86
2020/12/12 10:30:14;;;;;;;0.13;0.13;;;8.90;99.90;;;;;;5043020;28;20116;-86
2020/12/12 10:32:40;;;;;;;;;;;9.10;99.90;;;;;;5054589;28;20056;-86
2020/12/12 10:35:11;;;;;;;0.75;0.75;;;8.80;99.90;;;;;;5040541;28;19951;-86
2020/12/12 10:37:38;;;;;;;0.20;0.20;;;9.00;99.90;;;;;;5042696;28;20029;-86
2020/12/12 10:40:22;;;;;;;;;;;9.00;99.90;;;;;;5045030;28;20525;-86
2020/12/12 10:42:48;;;;;;;0.22;0.22;;;9.10;99.90;;;;;;5033409;28;19912;-86
2020/12/12 10:45:14;;;;;;;0.10;0.10;;;9.00;99.90;;;;;;5055990;28;20033;-86
2020/12/12 10:47:40;;;;;;;0.13;0.13;;;8.70;99.90;;;;;;5036610;28;20120;-86
2020/12/12 10:50:07;;;;;;;0.80;0.80;;;8.80;99.90;;;;;;5043610;28;20112;-86
2020/12/12 10:52:34;;;;;;;0.10;0.10;;;9.10;99.90;;;;;;5047214;28;20017;-86
2020/12/12 10:55:01;;;;;;;0.30;0.30;;;9.10;99.90;;;;;;5060436;28;20101;-86
2020/12/12 10:57:27;;;;;;;1.27;1.17;;;8.90;99.90;;;;;;5038461;28;20082;-85
2020/12/12 10:59:53;;;;;;;0.47;0.47;;;9.40;99.90;;;;;;5048911;28;20051;-86
2020/12/12 11:02:19;;;;;;;0.10;0.10;;;9.20;99.90;;;;;;5060492;28;20110;-86
2020/12/12 11:04:45;;;;;;;1.65;0.45;;;10.10;99.90;;;;;;5068378;28;20028;-86
2020/12/12 11:07:11;;;;;;;0.20;0.20;;;9.50;99.90;;;;;;5040210;28;20025;-87
2020/12/12 11:09:39;;;;;;;0.10;0.10;;;9.60;99.90;;;;;;5038415;28;20033;-86
2020/12/12 11:12:05;;;;;;;0.10;0.10;;;9.10;99.90;;;;;;5050336;28;20567;-86
2020/12/12 11:14:33;;;;;;;0.10;0.10;;;9.10;99.90;;;;;;5050496;28;20021;-86
2020/12/12 11:17:02;;;;;;;0.10;0.10;;;9.30;99.90;;;;;;5044763;28;20772;-85
2020/12/12 11:19:28;;;;;;;0.10;0.10;;;9.20;99.90;;;;;;5048341;28;20043;-85
2020/12/12 11:21:55;;;;;;;0.17;0.17;;;9.50;99.90;;;;;;5024704;28;20115;-84
2020/12/12 11:24:22;;;;;;;;;;;9.60;99.90;;;;;;5049098;28;20033;-84
2020/12/12 11:26:48;;;;;;;0.10;0.10;;;11.60;99.90;;;;;;5027438;28;19919;-84
2020/12/12 11:29:14;;;;;;;0.10;0.10;;;10.40;99.90;;;;;;5036106;28;20040;-86
2020/12/12 11:31:43;;;;;;;0.30;0.30;;;10.00;99.90;;;;;;5036728;28;20032;-86
2020/12/12 11:34:28;;;;;;;0.22;0.22;;;9.60;99.90;;;;;;5046707;28;20040;-87
2020/12/12 11:42:24;;;;;;;0.22;0.22;;;9.10;99.90;;;;;;5034819;28;20092;-86
2020/12/12 11:45:05;;;;;;;0.10;0.10;;;9.20;99.90;;;;;;5037400;28;20126;-85
2020/12/12 11:47:33;;;;;;;0.10;0.10;;;9.90;99.90;;;;;;5024772;28;20628;-84
2020/12/12 11:49:59;;;;;;;0.20;0.20;;;9.60;99.90;;;;;;5040132;28;20490;-85
2020/12/12 11:52:25;;;;;;;0.35;0.35;;;9.50;99.90;;;;;;5044391;28;20017;-87
2020/12/12 11:54:52;;;;;;;0.10;0.10;;;9.50;99.90;;;;;;5020964;28;20035;-87
2020/12/12 11:57:18;;;;;;;;;;;9.50;99.90;;;;;;5030864;28;20383;-88
2020/12/12 11:59:45;;;;;;;0.10;0.10;;;9.20;99.90;;;;;;5046133;28;19916;-87
2020/12/12 12:02:11;;;;;;;0.47;0.47;;;9.20;99.90;;;;;;5045425;28;20033;-87
2020/12/12 12:04:37;;;;;;;0.10;0.10;;;9.20;99.90;;;;;;5047716;28;20112;-86
2020/12/12 12:07:05;;;;;;;0.10;0.10;;;9.30;99.90;;;;;;5042830;28;20108;-86
2020/12/12 12:11:58;;;;;;;0.75;0.55;;;9.30;99.90;;;;;;5048500;28;20506;-86
2020/12/12 12:14:24;;;;;;;0.10;0.10;;;9.20;99.90;;;;;;5035298;28;20013;-87
2020/12/12 12:16:50;;;;;;;0.50;0.50;;;9.10;99.90;;;;;;5022331;28;20115;-88
2020/12/12 12:19:17;;;;;;;0.10;0.10;;;9.10;99.90;;;;;;5026167;28;20120;-87
2020/12/12 12:21:50;;;;;;;0.10;0.10;;;9.10;99.90;;;;;;5026071;28;20033;-89
2020/12/12 12:24:17;;;;;;;0.10;0.10;;;9.20;99.90;;;;;;5023527;28;20515;-86
2020/12/12 12:26:50;;;;;;;0.35;0.35;;;9.40;99.90;;;;;;5027257;28;20049;-84
2020/12/12 12:29:22;;;;;;;0.70;0.70;;;9.20;99.90;;;;;;5009362;28;20040;-87
2020/12/12 12:32:00;;;;;;;1.02;0.60;;;9.10;99.90;;;;;;5016841;28;20466;-85
2020/12/12 12:34:29;;;;;;;0.98;0.65;;;9.30;99.90;;;;;;5022021;28;20124;-85
2020/12/12 12:36:57;;;;;;;0.40;0.35;;;9.60;99.90;;;;;;5023067;28;20056;-86
2020/12/12 12:39:23;;;;;;;0.17;0.17;;;9.80;99.90;;;;;;5020682;28;20068;-86
2020/12/12 12:41:52;;;;;;;3.30;1.52;;;9.40;99.90;;;;;;5018291;28;20033;-86
2020/12/12 12:44:25;;;;;;;3.47;1.55;;;9.40;99.90;;;;;;5019172;28;20041;-86
2020/12/12 12:46:53;;;;;;;;;;;9.30;99.90;;;;;;5017902;28;20053;-86
2020/12/12 12:49:19;;;;;;;0.10;0.10;;;9.40;99.90;;;;;;5018541;28;19921;-88
2020/12/12 12:51:48;;;;;;;1.30;1.20;;;9.60;99.90;;;;;;5017868;28;20060;-88
2020/12/12 12:54:14;;;;;;;0.13;0.13;;;9.50;99.90;;;;;;5022436;28;20022;-85
2020/12/12 12:56:41;;;;;;;0.10;0.10;;;9.40;99.90;;;;;;5013312;28;20025;-86
2020/12/12 12:59:07;;;;;;;0.13;0.13;;;9.60;99.90;;;;;;5025873;28;20052;-85
2020/12/12 13:01:32;;;;;;;0.10;0.10;;;9.40;99.90;;;;;;5022282;28;20793;-87
2020/12/12 13:03:58;;;;;;;0.82;0.82;;;9.20;99.90;;;;;;5019491;28;20105;-87